Time;durP1;ratioP1;P1;durP2;ratioP2;P2;SDS_P1;SDS_P2;PMS_P1;PMS_P2;Temp;Humidity;BMP_temperature;BMP_pressure;BME280_temperature;BME280_humidity;BME280_pressure;Samples;Min_cycle;Max_cycle;Signal;HPM_P1;HPM_P2
2023/12/31 00:00:01;;;;;;;2.50;0.20;;;;;;;;;;4976974;28;20057;-54
2023/12/31 00:02:29;;;;;;;3.30;0.20;;;;;;;;;;4965083;28;20057;-52
2023/12/31 00:04:56;;;;;;;1.98;0.25;;;;;;;;;;4970996;28;20663;-54
2023/12/31 00:07:26;;;;;;;2.78;0.32;;;;;;;;;;4970582;28;20053;-52
2023/12/31 00:09:54;;;;;;;2.35;0.20;;;;;;;;;;4972250;28;20096;-53
2023/12/31 00:12:22;;;;;;;2.47;0.20;;;;;;;;;;4970468;28;20050;-52
2023/12/31 00:14:51;;;;;;;1.75;0.20;;;;;;;;;;4982178;28;20038;-51
2023/12/31 00:17:19;;;;;;;4.25;0.35;;;;;;;;;;4960516;28;20061;-55
2023/12/31 00:19:46;;;;;;;3.55;0.40;;;;;;;;;;4976701;28;20045;-52
2023/12/31 00:22:14;;;;;;;2.17;0.35;;;;;;;;;;4973068;28;20632;-52
2023/12/31 00:24:42;;;;;;;2.60;0.37;;;;;;;;;;4982521;28;20046;-54
2023/12/31 00:27:10;;;;;;;2.97;0.20;;;;;;;;;;4955709;28;20049;-55
2023/12/31 00:29:37;;;;;;;2.08;0.30;;;;;;;;;;4984553;28;20368;-56
2023/12/31 00:32:07;;;;;;;2.63;0.40;;;;;;;;;;4961142;28;20475;-55
2023/12/31 00:34:35;;;;;;;3.03;0.35;;;;;;;;;;4957775;28;20507;-52
2023/12/31 00:37:03;;;;;;;2.27;0.20;;;;;;;;;;4957653;28;20466;-54
2023/12/31 00:39:31;;;;;;;4.60;0.55;;;;;;;;;;4968691;28;20034;-54
2023/12/31 00:41:59;;;;;;;3.25;0.45;;;;;;;;;;4970239;28;20860;-54
2023/12/31 00:44:27;;;;;;;3.33;0.50;;;;;;;;;;4972365;28;20049;-53
2023/12/31 00:46:54;;;;;;;5.30;0.60;;;;;;;;;;4968862;28;20428;-50
2023/12/31 00:49:23;;;;;;;2.33;0.50;;;;;;;;;;4971214;28;20042;-52
2023/12/31 00:51:51;;;;;;;2.50;0.35;;;;;;;;;;4956256;28;20476;-56
2023/12/31 00:54:19;;;;;;;1.77;0.30;;;;;;;;;;4977606;28;20041;-52
2023/12/31 00:56:46;;;;;;;4.30;0.40;;;;;;;;;;4972118;28;20218;-49
2023/12/31 00:59:14;;;;;;;6.63;0.63;;;;;;;;;;4969745;28;20052;-54
2023/12/31 01:01:42;;;;;;;4.67;0.30;;;;;;;;;;4979984;28;20045;-52
2023/12/31 01:04:10;;;;;;;4.32;0.50;;;;;;;;;;4968401;28;20045;-50
2023/12/31 01:06:41;;;;;;;2.42;0.30;;;;;;;;;;4963799;28;20044;-53
2023/12/31 01:09:10;;;;;;;2.88;0.40;;;;;;;;;;4970605;28;20041;-53
2023/12/31 01:11:38;;;;;;;4.50;0.35;;;;;;;;;;4970151;28;20041;-52
2023/12/31 01:14:06;;;;;;;1.97;0.30;;;;;;;;;;4970945;28;20516;-52
2023/12/31 01:16:34;;;;;;;4.75;0.77;;;;;;;;;;4986021;28;20193;-56
2023/12/31 01:19:01;;;;;;;2.67;0.30;;;;;;;;;;4965588;28;20833;-56
2023/12/31 01:21:29;;;;;;;3.83;0.30;;;;;;;;;;4986021;28;20512;-53
2023/12/31 01:23:58;;;;;;;5.40;0.40;;;;;;;;;;4965623;28;20041;-52
2023/12/31 01:26:26;;;;;;;2.27;0.30;;;;;;;;;;4985401;28;20481;-49
2023/12/31 01:28:54;;;;;;;3.08;0.30;;;;;;;;;;4964490;28;20046;-50
2023/12/31 01:31:22;;;;;;;2.85;0.38;;;;;;;;;;4977290;28;20050;-52
2023/12/31 01:33:50;;;;;;;4.45;0.40;;;;;;;;;;4945116;28;20121;-53
2023/12/31 01:36:18;;;;;;;2.38;0.30;;;;;;;;;;4970494;28;20061;-52
2023/12/31 01:38:45;;;;;;;5.33;0.60;;;;;;;;;;4960171;28;20049;-51
2023/12/31 01:41:15;;;;;;;1.60;0.20;;;;;;;;;;4971961;28;20069;-53
2023/12/31 01:43:42;;;;;;;1.60;0.20;;;;;;;;;;4964632;28;20042;-55
2023/12/31 01:46:10;;;;;;;2.38;0.20;;;;;;;;;;4972796;28;20152;-48
2023/12/31 01:48:38;;;;;;;2.15;0.30;;;;;;;;;;4955755;28;20125;-51
2023/12/31 01:51:06;;;;;;;1.53;0.20;;;;;;;;;;4985188;28;20049;-53
2023/12/31 01:53:34;;;;;;;4.30;0.30;;;;;;;;;;4962080;28;20045;-48
2023/12/31 01:56:02;;;;;;;3.47;0.20;;;;;;;;;;4973031;28;20122;-49
2023/12/31 01:58:31;;;;;;;4.25;0.30;;;;;;;;;;4969567;28;20050;-51
2023/12/31 02:00:59;;;;;;;3.30;0.35;;;;;;;;;;4963245;28;20081;-49
2023/12/31 02:03:29;;;;;;;2.53;0.27;;;;;;;;;;4968914;28;20042;-54
2023/12/31 02:05:57;;;;;;;2.22;0.20;;;;;;;;;;4974938;28;20037;-54
2023/12/31 02:08:24;;;;;;;2.03;0.20;;;;;;;;;;4972540;28;20034;-54
2023/12/31 02:10:52;;;;;;;4.50;0.20;;;;;;;;;;4940584;28;20038;-53
2023/12/31 02:13:20;;;;;;;3.15;0.30;;;;;;;;;;4938319;28;20544;-54
2023/12/31 02:15:52;;;;;;;5.07;0.27;;;;;;;;;;4969457;28;20056;-54
2023/12/31 02:18:20;;;;;;;3.05;0.30;;;;;;;;;;4964729;28;20771;-54
2023/12/31 02:20:48;;;;;;;4.30;0.20;;;;;;;;;;4971272;28;20369;-52
2023/12/31 02:23:16;;;;;;;2.00;0.22;;;;;;;;;;4977305;28;20046;-53
2023/12/31 02:25:45;;;;;;;3.08;0.20;;;;;;;;;;4970021;28;20037;-52
2023/12/31 02:28:15;;;;;;;1.47;0.20;;;;;;;;;;4980033;28;20574;-52
2023/12/31 02:30:43;;;;;;;1.80;0.20;;;;;;;;;;4962418;28;20042;-50
2023/12/31 02:33:12;;;;;;;3.20;0.47;;;;;;;;;;4939766;28;20046;-49
2023/12/31 02:35:41;;;;;;;4.10;0.30;;;;;;;;;;4959991;28;20049;-51
2023/12/31 02:38:08;;;;;;;3.65;0.20;;;;;;;;;;4960801;28;20411;-52
2023/12/31 02:40:36;;;;;;;2.10;0.20;;;;;;;;;;4970338;28;20605;-53
2023/12/31 02:43:04;;;;;;;2.13;0.20;;;;;;;;;;4961359;28;20045;-51
2023/12/31 02:45:34;;;;;;;4.05;0.50;;;;;;;;;;4961032;28;20149;-51
2023/12/31 02:48:01;;;;;;;2.45;0.10;;;;;;;;;;4967675;28;20046;-49
2023/12/31 02:50:31;;;;;;;1.73;0.20;;;;;;;;;;4972466;28;20042;-56
2023/12/31 02:53:00;;;;;;;3.13;0.43;;;;;;;;;;4972474;28;20053;-51
2023/12/31 02:55:28;;;;;;;1.55;0.20;;;;;;;;;;4980919;28;20034;-49
2023/12/31 02:57:56;;;;;;;3.40;0.43;;;;;;;;;;4967705;28;20169;-48
2023/12/31 03:00:23;;;;;;;2.20;0.20;;;;;;;;;;4964041;28;20053;-53
2023/12/31 03:02:52;;;;;;;2.47;0.40;;;;;;;;;;4959731;28;20040;-53
2023/12/31 03:05:20;;;;;;;1.80;0.10;;;;;;;;;;4957177;28;20053;-51
2023/12/31 03:07:48;;;;;;;3.15;0.30;;;;;;;;;;4965888;28;20048;-48
2023/12/31 03:10:16;;;;;;;1.40;0.20;;;;;;;;;;4971272;28;20133;-54
2023/12/31 03:12:43;;;;;;;1.55;0.20;;;;;;;;;;4974553;28;20041;-53
2023/12/31 03:15:11;;;;;;;2.28;0.75;;;;;;;;;;4978718;28;20061;-51
2023/12/31 03:17:39;;;;;;;2.87;0.50;;;;;;;;;;4970548;28;20152;-52
2023/12/31 03:20:09;;;;;;;2.35;0.20;;;;;;;;;;4985005;28;20045;-51
2023/12/31 03:22:37;;;;;;;3.17;0.30;;;;;;;;;;4950518;28;20117;-52
2023/12/31 03:25:10;;;;;;;2.25;0.20;;;;;;;;;;4987934;28;20124;-52
2023/12/31 03:27:38;;;;;;;2.80;0.20;;;;;;;;;;4957950;28;20304;-51
2023/12/31 03:30:08;;;;;;;3.13;0.20;;;;;;;;;;4983720;28;20049;-50
2023/12/31 03:32:35;;;;;;;2.63;0.20;;;;;;;;;;4961421;28;20711;-52
2023/12/31 03:35:03;;;;;;;1.38;0.20;;;;;;;;;;4962749;28;20041;-48
2023/12/31 03:37:32;;;;;;;2.22;0.30;;;;;;;;;;4966471;28;20045;-54
2023/12/31 03:40:00;;;;;;;1.48;0.20;;;;;;;;;;4963810;28;20577;-52
2023/12/31 03:42:30;;;;;;;1.10;0.10;;;;;;;;;;4971224;28;20042;-51
2023/12/31 03:44:58;;;;;;;4.68;0.80;;;;;;;;;;4969969;28;20065;-50
2023/12/31 03:47:25;;;;;;;1.70;0.20;;;;;;;;;;4949639;28;20042;-51
2023/12/31 03:49:53;;;;;;;2.15;0.20;;;;;;;;;;4977203;28;20412;-52
2023/12/31 03:52:22;;;;;;;1.90;0.20;;;;;;;;;;4980755;28;20431;-50
2023/12/31 03:54:51;;;;;;;3.20;0.50;;;;;;;;;;4974730;28;20136;-48
2023/12/31 03:57:19;;;;;;;2.75;0.30;;;;;;;;;;4961753;28;21010;-52
2023/12/31 03:59:46;;;;;;;2.65;0.15;;;;;;;;;;4946804;28;20495;-51
2023/12/31 04:02:14;;;;;;;1.83;0.20;;;;;;;;;;4978694;28;20049;-50
2023/12/31 04:04:42;;;;;;;1.75;0.32;;;;;;;;;;4963543;28;20042;-51
2023/12/31 04:07:10;;;;;;;4.30;0.93;;;;;;;;;;4976359;28;20033;-52
2023/12/31 04:09:39;;;;;;;4.70;1.00;;;;;;;;;;4962869;28;20141;-54
2023/12/31 04:12:09;;;;;;;4.55;0.40;;;;;;;;;;4944121;28;20266;-52
2023/12/31 04:14:36;;;;;;;3.67;0.30;;;;;;;;;;4960992;28;20381;-52
2023/12/31 04:17:04;;;;;;;3.30;0.22;;;;;;;;;;4951378;28;20049;-53
2023/12/31 04:19:32;;;;;;;3.80;0.30;;;;;;;;;;4972849;28;20042;-55
2023/12/31 04:21:59;;;;;;;2.63;0.10;;;;;;;;;;4966263;28;20092;-52
2023/12/31 04:24:27;;;;;;;5.18;0.45;;;;;;;;;;4940502;28;20260;-52
2023/12/31 04:26:56;;;;;;;2.88;0.38;;;;;;;;;;4952774;28;20046;-50
2023/12/31 04:29:25;;;;;;;6.25;0.30;;;;;;;;;;4976084;28;20042;-49
2023/12/31 04:31:53;;;;;;;5.67;0.37;;;;;;;;;;4972188;28;20042;-51
2023/12/31 04:34:22;;;;;;;4.28;0.30;;;;;;;;;;4952572;28;20117;-50
2023/12/31 04:36:50;;;;;;;2.88;0.25;;;;;;;;;;4966506;28;20137;-50
2023/12/31 04:39:18;;;;;;;5.45;0.40;;;;;;;;;;4970100;28;20046;-51
2023/12/31 04:41:46;;;;;;;5.60;0.30;;;;;;;;;;4988387;28;20038;-53
2023/12/31 04:44:14;;;;;;;6.37;0.30;;;;;;;;;;4967017;28;20177;-53
2023/12/31 04:46:43;;;;;;;4.43;0.22;;;;;;;;;;4984221;28;20046;-50
2023/12/31 04:49:13;;;;;;;2.35;0.30;;;;;;;;;;4970768;28;20084;-54
2023/12/31 04:51:41;;;;;;;5.15;0.35;;;;;;;;;;4972304;28;20042;-51
2023/12/31 04:54:09;;;;;;;3.20;0.30;;;;;;;;;;4968609;28;20053;-56
2023/12/31 04:56:37;;;;;;;1.97;0.30;;;;;;;;;;4960107;28;20946;-50
2023/12/31 04:59:05;;;;;;;6.47;0.40;;;;;;;;;;4979707;28;20754;-50
2023/12/31 05:01:33;;;;;;;5.57;0.20;;;;;;;;;;4969347;28;20052;-48
2023/12/31 05:04:02;;;;;;;4.53;0.30;;;;;;;;;;4965051;28;20049;-53
2023/12/31 05:06:30;;;;;;;2.08;0.20;;;;;;;;;;4965020;28;20046;-49
2023/12/31 05:08:58;;;;;;;1.57;0.20;;;;;;;;;;4960621;28;20353;-53
2023/12/31 05:11:26;;;;;;;4.35;0.50;;;;;;;;;;4970001;28;20050;-53
2023/12/31 05:13:54;;;;;;;1.73;0.20;;;;;;;;;;4965521;28;21092;-53
2023/12/31 05:16:22;;;;;;;2.40;0.20;;;;;;;;;;4980206;28;20092;-49
2023/12/31 05:18:50;;;;;;;3.83;0.30;;;;;;;;;;4967531;28;20107;-52
2023/12/31 05:21:20;;;;;;;4.53;0.30;;;;;;;;;;4971374;28;20038;-54
2023/12/31 05:23:48;;;;;;;3.90;0.40;;;;;;;;;;4976943;28;20065;-53
2023/12/31 05:26:16;;;;;;;5.80;0.40;;;;;;;;;;4967880;28;20057;-54
2023/12/31 05:28:43;;;;;;;4.82;0.20;;;;;;;;;;4971530;28;20042;-51
2023/12/31 05:31:11;;;;;;;7.18;0.40;;;;;;;;;;4962332;28;20859;-50
2023/12/31 05:33:41;;;;;;;3.43;0.33;;;;;;;;;;4963807;28;20157;-51
2023/12/31 05:36:09;;;;;;;3.72;0.30;;;;;;;;;;4969469;28;20361;-48
2023/12/31 05:38:39;;;;;;;7.30;0.30;;;;;;;;;;4977635;28;20307;-53
2023/12/31 05:41:07;;;;;;;2.47;0.30;;;;;;;;;;4959713;28;20057;-51
2023/12/31 05:43:35;;;;;;;6.68;0.63;;;;;;;;;;4973962;28;20049;-51
2023/12/31 05:46:02;;;;;;;6.57;0.47;;;;;;;;;;4951959;28;20424;-49
2023/12/31 05:48:30;;;;;;;5.90;0.40;;;;;;;;;;4967885;28;20037;-48
2023/12/31 05:50:59;;;;;;;5.40;0.45;;;;;;;;;;4953788;28;20046;-53
2023/12/31 05:53:26;;;;;;;5.10;0.52;;;;;;;;;;4953075;28;20416;-50
2023/12/31 05:55:56;;;;;;;5.82;0.40;;;;;;;;;;4965208;28;20050;-50
2023/12/31 05:58:24;;;;;;;5.40;0.40;;;;;;;;;;4963049;28;20808;-52
2023/12/31 06:00:56;;;;;;;4.45;0.50;;;;;;;;;;4960601;28;20041;-52
2023/12/31 06:03:24;;;;;;;5.45;0.40;;;;;;;;;;4963546;28;20074;-49
2023/12/31 06:05:51;;;;;;;3.67;0.40;;;;;;;;;;4963140;28;20406;-52
2023/12/31 06:08:19;;;;;;;6.43;1.25;;;;;;;;;;4966944;28;20042;-52
2023/12/31 06:10:48;;;;;;;8.83;0.40;;;;;;;;;;4971398;28;20403;-53
2023/12/31 06:13:18;;;;;;;8.32;0.50;;;;;;;;;;4957290;28;20128;-51
2023/12/31 06:15:46;;;;;;;4.50;0.32;;;;;;;;;;4987512;28;20046;-51
2023/12/31 06:18:13;;;;;;;11.88;0.40;;;;;;;;;;4967440;28;20042;-52
2023/12/31 06:20:41;;;;;;;8.65;0.60;;;;;;;;;;4966701;28;20830;-52
2023/12/31 06:23:09;;;;;;;9.27;0.70;;;;;;;;;;4965690;28;20493;-52
2023/12/31 06:25:37;;;;;;;9.90;0.55;;;;;;;;;;4976313;28;20507;-53
2023/12/31 06:28:05;;;;;;;6.30;0.80;;;;;;;;;;4955232;28;20045;-50
2023/12/31 06:30:34;;;;;;;10.30;0.70;;;;;;;;;;4975820;28;20043;-51
2023/12/31 06:33:02;;;;;;;6.32;0.82;;;;;;;;;;4960535;28;20057;-52
2023/12/31 06:35:30;;;;;;;12.67;0.57;;;;;;;;;;4942102;28;20424;-51
2023/12/31 06:37:57;;;;;;;4.75;0.60;;;;;;;;;;4967078;28;20049;-52
2023/12/31 06:40:25;;;;;;;5.40;0.35;;;;;;;;;;4965868;28;20473;-51
2023/12/31 06:42:53;;;;;;;11.07;1.25;;;;;;;;;;4957874;28;20360;-52
2023/12/31 06:45:20;;;;;;;8.20;0.50;;;;;;;;;;4974173;28;20049;-52
2023/12/31 06:47:49;;;;;;;6.17;0.50;;;;;;;;;;4966342;28;20044;-49
2023/12/31 06:50:17;;;;;;;6.60;0.30;;;;;;;;;;4979912;28;20042;-53
2023/12/31 06:52:45;;;;;;;11.40;0.77;;;;;;;;;;4964926;28;20042;-50
2023/12/31 06:55:13;;;;;;;16.38;1.48;;;;;;;;;;4978489;28;20049;-52
2023/12/31 06:57:41;;;;;;;13.18;1.65;;;;;;;;;;4959245;28;20058;-52
2023/12/31 07:00:09;;;;;;;14.47;1.13;;;;;;;;;;4961660;28;20034;-59
2023/12/31 07:02:38;;;;;;;10.27;1.08;;;;;;;;;;4972133;28;20125;-55
2023/12/31 07:05:08;;;;;;;13.05;1.02;;;;;;;;;;4956393;28;20030;-53
2023/12/31 07:07:37;;;;;;;15.07;1.38;;;;;;;;;;4973369;28;20049;-52
2023/12/31 07:10:05;;;;;;;9.55;0.93;;;;;;;;;;4967253;28;20057;-52
2023/12/31 07:12:33;;;;;;;9.63;1.47;;;;;;;;;;4957167;28;20100;-53
2023/12/31 07:15:01;;;;;;;14.07;1.13;;;;;;;;;;4956107;28;20041;-53
2023/12/31 07:17:28;;;;;;;13.57;1.42;;;;;;;;;;4967910;28;20048;-53
2023/12/31 07:19:57;;;;;;;14.95;1.02;;;;;;;;;;4968585;28;20679;-53
2023/12/31 07:22:27;;;;;;;12.55;1.48;;;;;;;;;;4973247;28;20734;-52
2023/12/31 07:24:55;;;;;;;17.63;1.50;;;;;;;;;;4974215;28;20042;-54
2023/12/31 07:27:23;;;;;;;19.92;1.70;;;;;;;;;;4983653;28;20046;-53
2023/12/31 07:29:51;;;;;;;20.83;1.83;;;;;;;;;;4960273;28;20053;-55
2023/12/31 07:32:18;;;;;;;15.27;1.55;;;;;;;;;;4957152;28;20053;-51
2023/12/31 07:34:46;;;;;;;14.27;1.20;;;;;;;;;;4952827;28;20053;-56
2023/12/31 07:37:14;;;;;;;13.10;1.63;;;;;;;;;;4959090;28;20053;-56
2023/12/31 07:39:43;;;;;;;16.15;1.10;;;;;;;;;;4969329;28;20034;-52
2023/12/31 07:42:11;;;;;;;25.33;1.83;;;;;;;;;;4963041;28;20048;-51
2023/12/31 07:44:39;;;;;;;11.65;1.10;;;;;;;;;;4972570;28;20412;-54
2023/12/31 07:47:06;;;;;;;14.30;1.17;;;;;;;;;;4972272;28;23524;-52
2023/12/31 07:49:34;;;;;;;14.30;0.83;;;;;;;;;;4967551;28;20034;-53
2023/12/31 07:52:02;;;;;;;16.08;1.48;;;;;;;;;;4963787;28;20556;-49
2023/12/31 07:54:30;;;;;;;13.55;1.20;;;;;;;;;;4964328;28;20096;-50
2023/12/31 07:57:03;;;;;;;11.15;1.02;;;;;;;;;;4964897;28;20081;-50
2023/12/31 07:59:31;;;;;;;13.05;1.48;;;;;;;;;;4977965;28;20054;-54
2023/12/31 08:01:59;;;;;;;18.07;0.97;;;;;;;;;;4959836;28;20177;-49
2023/12/31 08:04:27;;;;;;;10.40;1.02;;;;;;;;;;4979512;28;20034;-52
2023/12/31 08:06:55;;;;;;;19.55;2.13;;;;;;;;;;4946099;28;20050;-51
2023/12/31 08:09:23;;;;;;;12.85;1.38;;;;;;;;;;4971654;28;20041;-53
2023/12/31 08:11:51;;;;;;;16.17;1.42;;;;;;;;;;4966599;28;20041;-53
2023/12/31 08:14:20;;;;;;;8.07;1.27;;;;;;;;;;4966208;28;20435;-52
2023/12/31 08:16:47;;;;;;;9.88;0.82;;;;;;;;;;4966282;28;20543;-50
2023/12/31 08:19:16;;;;;;;9.40;1.02;;;;;;;;;;4968686;28;20042;-53
2023/12/31 08:21:45;;;;;;;14.18;1.98;;;;;;;;;;4976048;28;20041;-51
2023/12/31 08:24:18;;;;;;;11.45;0.80;;;;;;;;;;4965097;28;20053;-51
2023/12/31 08:26:46;;;;;;;9.83;0.60;;;;;;;;;;4970736;28;20995;-53
2023/12/31 08:29:14;;;;;;;13.85;1.10;;;;;;;;;;4966887;28;20514;-48
2023/12/31 08:31:48;;;;;;;12.48;0.88;;;;;;;;;;4957962;28;20048;-52
2023/12/31 08:34:17;;;;;;;14.55;1.02;;;;;;;;;;4947241;28;20050;-49
2023/12/31 08:36:45;;;;;;;10.00;0.60;;;;;;;;;;4973978;28;20078;-54
2023/12/31 08:39:12;;;;;;;12.63;0.77;;;;;;;;;;4961693;28;20527;-50
2023/12/31 08:41:40;;;;;;;7.70;0.60;;;;;;;;;;4970751;28;20472;-50
2023/12/31 08:44:10;;;;;;;8.90;1.13;;;;;;;;;;4979351;28;20049;-54
2023/12/31 08:46:38;;;;;;;8.52;1.25;;;;;;;;;;4960510;28;20041;-52
2023/12/31 08:49:08;;;;;;;11.90;1.02;;;;;;;;;;4972169;28;20749;-52
2023/12/31 08:51:37;;;;;;;9.47;1.10;;;;;;;;;;4971305;28;20449;-50
2023/12/31 08:54:04;;;;;;;5.97;0.57;;;;;;;;;;4960591;28;20046;-52
2023/12/31 08:56:33;;;;;;;10.10;0.60;;;;;;;;;;4979856;28;20056;-54
2023/12/31 08:59:00;;;;;;;8.10;0.60;;;;;;;;;;4957504;28;20046;-53
2023/12/31 09:01:28;;;;;;;8.98;0.98;;;;;;;;;;4968098;28;20038;-54
2023/12/31 09:03:56;;;;;;;9.40;1.27;;;;;;;;;;4964617;28;20442;-51
2023/12/31 09:06:25;;;;;;;9.00;1.08;;;;;;;;;;4971878;28;20174;-52
2023/12/31 09:08:53;;;;;;;6.07;0.70;;;;;;;;;;4961439;28;20672;-49
2023/12/31 09:11:21;;;;;;;10.50;0.68;;;;;;;;;;4980904;28;20042;-49
2023/12/31 09:13:48;;;;;;;9.23;0.57;;;;;;;;;;4983399;28;20057;-52
2023/12/31 09:16:17;;;;;;;7.23;0.80;;;;;;;;;;4978790;28;20045;-53
2023/12/31 09:18:44;;;;;;;5.80;0.50;;;;;;;;;;4967527;28;20040;-52
2023/12/31 09:21:13;;;;;;;8.60;0.90;;;;;;;;;;4968560;28;20037;-54
2023/12/31 09:23:43;;;;;;;11.75;0.90;;;;;;;;;;4966551;28;20129;-54
2023/12/31 09:26:12;;;;;;;6.20;0.68;;;;;;;;;;4974489;28;20042;-55
2023/12/31 09:28:42;;;;;;;8.30;1.57;;;;;;;;;;4967339;28;20052;-52
2023/12/31 09:31:10;;;;;;;10.25;0.88;;;;;;;;;;4960776;28;20046;-53
2023/12/31 09:33:44;;;;;;;5.65;0.60;;;;;;;;;;4960016;28;20120;-55
2023/12/31 09:36:12;;;;;;;4.85;0.50;;;;;;;;;;4976835;28;20046;-52
2023/12/31 09:38:44;;;;;;;5.00;0.70;;;;;;;;;;4961646;28;20064;-52
2023/12/31 09:41:17;;;;;;;6.03;1.33;;;;;;;;;;4964673;28;20041;-53
2023/12/31 09:43:47;;;;;;;8.85;0.70;;;;;;;;;;4985635;28;20053;-54
2023/12/31 09:46:15;;;;;;;8.27;0.70;;;;;;;;;;4966561;28;20118;-51
2023/12/31 09:48:43;;;;;;;4.47;0.40;;;;;;;;;;4966002;28;20104;-52
2023/12/31 09:51:11;;;;;;;6.93;0.52;;;;;;;;;;4973042;28;20055;-52
2023/12/31 09:53:40;;;;;;;9.10;0.60;;;;;;;;;;4965506;28;20030;-52
2023/12/31 09:56:09;;;;;;;5.10;0.85;;;;;;;;;;4962309;28;20034;-53
2023/12/31 09:58:38;;;;;;;5.00;0.40;;;;;;;;;;4970331;28;20057;-53
2023/12/31 10:01:07;;;;;;;5.95;0.50;;;;;;;;;;4972889;28;21024;-53
2023/12/31 10:03:35;;;;;;;3.78;0.40;;;;;;;;;;4966046;28;20042;-51
2023/12/31 10:06:04;;;;;;;6.47;0.60;;;;;;;;;;4974025;28;20053;-52
2023/12/31 10:08:32;;;;;;;5.47;0.52;;;;;;;;;;4967653;28;20057;-50
2023/12/31 10:11:00;;;;;;;5.03;0.77;;;;;;;;;;4971265;28;20534;-51
2023/12/31 10:13:30;;;;;;;4.70;0.50;;;;;;;;;;4957065;28;20187;-50
2023/12/31 10:15:58;;;;;;;5.90;0.50;;;;;;;;;;4978774;28;20046;-51
2023/12/31 10:18:26;;;;;;;4.37;0.60;;;;;;;;;;4970812;28;20432;-50
2023/12/31 10:21:03;;;;;;;5.38;0.58;;;;;;;;;;4592706;28;10003195;-50
2023/12/31 10:23:31;;;;;;;8.38;0.32;;;;;;;;;;4960714;28;20045;-51
2023/12/31 10:25:59;;;;;;;5.65;0.30;;;;;;;;;;4968825;28;20050;-49
2023/12/31 10:28:29;;;;;;;4.50;0.43;;;;;;;;;;4967946;28;20445;-48
2023/12/31 10:30:57;;;;;;;3.53;0.30;;;;;;;;;;4957732;28;20069;-50
2023/12/31 10:33:28;;;;;;;5.45;0.40;;;;;;;;;;4939142;28;20041;-48
2023/12/31 10:36:03;;;;;;;6.78;0.60;;;;;;;;;;4917364;28;20668;-48
2023/12/31 10:38:43;;;;;;;6.68;0.63;;;;;;;;;;4973794;28;20184;-48
2023/12/31 10:41:14;;;;;;;7.30;0.50;;;;;;;;;;4955054;28;20046;-52
2023/12/31 10:43:45;;;;;;;8.75;0.60;;;;;;;;;;4289743;28;10000107;-52
2023/12/31 10:46:14;;;;;;;9.07;0.97;;;;;;;;;;4960139;28;20045;-49
2023/12/31 10:48:45;;;;;;;8.15;0.52;;;;;;;;;;4966549;28;20069;-54
2023/12/31 10:51:14;;;;;;;5.32;0.47;;;;;;;;;;4966121;28;20120;-53
2023/12/31 10:53:42;;;;;;;7.15;0.52;;;;;;;;;;4958207;28;20619;-56
2023/12/31 10:56:11;;;;;;;7.97;0.50;;;;;;;;;;4954462;28;20046;-54
2023/12/31 10:58:40;;;;;;;4.53;0.57;;;;;;;;;;4956320;28;20062;-53
2023/12/31 11:01:09;;;;;;;5.78;0.80;;;;;;;;;;4963745;28;20049;-54
2023/12/31 11:03:38;;;;;;;9.93;0.70;;;;;;;;;;4967120;28;20042;-53
2023/12/31 11:06:07;;;;;;;4.55;0.55;;;;;;;;;;4974836;28;20052;-51
2023/12/31 11:08:35;;;;;;;8.07;0.50;;;;;;;;;;4962522;28;20103;-54
2023/12/31 11:11:03;;;;;;;6.90;0.87;;;;;;;;;;4960371;28;20566;-50
2023/12/31 11:13:32;;;;;;;14.18;1.08;;;;;;;;;;4972406;28;21073;-50
2023/12/31 11:16:01;;;;;;;7.70;0.70;;;;;;;;;;4973205;28;20048;-50
2023/12/31 11:18:39;;;;;;;8.32;0.73;;;;;;;;;;4956420;28;20871;-49
2023/12/31 11:21:13;;;;;;;7.57;0.80;;;;;;;;;;4979236;28;20490;-55
2023/12/31 11:23:47;;;;;;;9.00;1.27;;;;;;;;;;4966874;28;20463;-53
2023/12/31 11:26:14;;;;;;;7.72;0.77;;;;;;;;;;4964832;28;20096;-53
2023/12/31 11:28:47;;;;;;;5.22;0.50;;;;;;;;;;4958735;28;20048;-54
2023/12/31 11:31:15;;;;;;;6.47;0.57;;;;;;;;;;4975415;28;20053;-51
2023/12/31 11:33:47;;;;;;;10.52;1.25;;;;;;;;;;4954964;28;20061;-52
2023/12/31 11:36:16;;;;;;;7.43;0.63;;;;;;;;;;4977951;28;20069;-52
2023/12/31 11:38:57;;;;;;;9.68;0.88;;;;;;;;;;4966888;28;20052;-49
2023/12/31 11:41:25;;;;;;;8.77;1.02;;;;;;;;;;4962242;28;20473;-49
2023/12/31 11:43:53;;;;;;;11.10;0.47;;;;;;;;;;4974087;28;20110;-49
2023/12/31 11:46:34;;;;;;;6.47;0.50;;;;;;;;;;4965868;28;20045;-50
2023/12/31 11:49:03;;;;;;;11.20;0.63;;;;;;;;;;4964229;28;20054;-52
2023/12/31 11:51:50;;;;;;;8.38;0.88;;;;;;;;;;4976103;28;20034;-48
2023/12/31 11:54:18;;;;;;;10.50;1.10;;;;;;;;;;4961311;28;20046;-49
2023/12/31 11:56:46;;;;;;;9.23;0.95;;;;;;;;;;4983487;28;20052;-48
2023/12/31 11:59:15;;;;;;;8.43;1.42;;;;;;;;;;4978016;28;20042;-53
2023/12/31 12:01:44;;;;;;;10.63;1.40;;;;;;;;;;4979053;28;20053;-52
2023/12/31 12:04:13;;;;;;;11.77;1.40;;;;;;;;;;4971219;28;20046;-53
2023/12/31 12:06:41;;;;;;;13.77;1.35;;;;;;;;;;4972206;28;20098;-53
2023/12/31 12:09:11;;;;;;;10.80;1.20;;;;;;;;;;4973480;28;20621;-49
2023/12/31 12:11:43;;;;;;;16.42;1.63;;;;;;;;;;4977167;28;20038;-50
2023/12/31 12:14:12;;;;;;;11.27;1.07;;;;;;;;;;4984242;28;20559;-50
2023/12/31 12:16:42;;;;;;;14.98;1.90;;;;;;;;;;4974931;28;20092;-51
2023/12/31 12:19:11;;;;;;;10.50;1.63;;;;;;;;;;4972620;28;20048;-51
2023/12/31 12:21:41;;;;;;;14.50;1.63;;;;;;;;;;4970820;28;20042;-52
2023/12/31 12:24:09;;;;;;;9.90;0.68;;;;;;;;;;4978804;28;20042;-54
2023/12/31 12:26:37;;;;;;;18.70;1.77;;;;;;;;;;4961568;28;20121;-48
2023/12/31 12:29:05;;;;;;;15.65;1.48;;;;;;;;;;4973661;28;20050;-51
2023/12/31 12:31:36;;;;;;;12.10;1.30;;;;;;;;;;4967935;28;20054;-53
2023/12/31 12:34:05;;;;;;;15.68;1.80;;;;;;;;;;4927277;28;20604;-53
2023/12/31 12:36:33;;;;;;;9.70;1.30;;;;;;;;;;4972783;28;20729;-58
2023/12/31 12:39:03;;;;;;;8.77;0.80;;;;;;;;;;4965864;28;20061;-58
2023/12/31 12:41:31;;;;;;;4.30;0.45;;;;;;;;;;4968681;28;20515;-59
2023/12/31 12:43:59;;;;;;;4.28;0.40;;;;;;;;;;4984866;28;20046;-60
2023/12/31 12:46:28;;;;;;;4.40;0.40;;;;;;;;;;4611245;28;10000289;-60
2023/12/31 12:48:57;;;;;;;3.92;0.30;;;;;;;;;;4978861;28;20528;-60
2023/12/31 12:51:26;;;;;;;4.50;0.40;;;;;;;;;;4975948;28;20173;-59
2023/12/31 12:54:02;;;;;;;5.73;0.52;;;;;;;;;;4854336;28;10000662;-60
2023/12/31 12:56:31;;;;;;;5.30;0.55;;;;;;;;;;4976601;28;20607;-59
2023/12/31 12:58:58;;;;;;;5.90;0.70;;;;;;;;;;4955874;28;20666;-59
2023/12/31 13:01:26;;;;;;;8.50;0.60;;;;;;;;;;4965751;28;20053;-60
2023/12/31 13:03:54;;;;;;;8.33;0.80;;;;;;;;;;4969185;28;20077;-59
2023/12/31 13:06:40;;;;;;;10.82;0.98;;;;;;;;;;4948749;28;20046;-59
2023/12/31 13:09:11;;;;;;;9.30;0.73;;;;;;;;;;4980152;28;20053;-58
2023/12/31 13:11:39;;;;;;;10.43;0.65;;;;;;;;;;4965422;28;20069;-60
2023/12/31 13:14:07;;;;;;;8.73;0.60;;;;;;;;;;4975969;28;20041;-58
2023/12/31 13:16:35;;;;;;;6.40;0.53;;;;;;;;;;4979735;28;20033;-60
2023/12/31 13:19:18;;;;;;;13.25;1.10;;;;;;;;;;4979813;28;20962;-60
2023/12/31 13:21:55;;;;;;;11.89;0.86;;;;;;;;;;4922706;28;10000797;-59
2023/12/31 13:24:24;;;;;;;8.93;0.80;;;;;;;;;;4630625;28;10000210;-59
2023/12/31 13:26:53;;;;;;;5.93;0.65;;;;;;;;;;4973098;28;20049;-58
2023/12/31 13:29:20;;;;;;;7.43;0.50;;;;;;;;;;4947476;28;20208;-59
2023/12/31 13:31:50;;;;;;;12.23;1.08;;;;;;;;;;4949728;28;20037;-59
2023/12/31 13:34:18;;;;;;;15.23;1.38;;;;;;;;;;4927665;28;20060;-58
2023/12/31 13:36:49;;;;;;;10.15;1.02;;;;;;;;;;4966101;28;22123;-59
2023/12/31 13:39:17;;;;;;;9.23;0.75;;;;;;;;;;4963390;28;20061;-59
2023/12/31 13:41:47;;;;;;;12.57;0.83;;;;;;;;;;4966395;28;20053;-59
2023/12/31 13:44:15;;;;;;;11.23;0.80;;;;;;;;;;4976441;28;20055;-60
2023/12/31 13:46:43;;;;;;;18.80;1.42;;;;;;;;;;4975089;28;20595;-58
2023/12/31 13:49:11;;;;;;;6.78;0.70;;;;;;;;;;4959904;28;20213;-60
2023/12/31 13:51:40;;;;;;;8.40;0.75;;;;;;;;;;4972841;28;20057;-59
2023/12/31 13:54:07;;;;;;;11.27;0.90;;;;;;;;;;4964609;28;20038;-60
2023/12/31 13:56:37;;;;;;;7.53;0.60;;;;;;;;;;4972588;28;20038;-61
2023/12/31 13:59:07;;;;;;;9.70;0.70;;;;;;;;;;4960619;28;20045;-60
2023/12/31 14:01:36;;;;;;;9.43;0.90;;;;;;;;;;4963318;28;20077;-60
2023/12/31 14:04:06;;;;;;;9.50;1.20;;;;;;;;;;4970693;28;20045;-60
2023/12/31 14:06:36;;;;;;;13.47;1.60;;;;;;;;;;4973425;28;20056;-59
2023/12/31 14:09:03;;;;;;;12.38;0.70;;;;;;;;;;4967658;28;20048;-58
2023/12/31 14:11:33;;;;;;;9.38;0.75;;;;;;;;;;4976653;28;20049;-59
2023/12/31 14:14:01;;;;;;;14.38;1.17;;;;;;;;;;4977113;28;20073;-59
2023/12/31 14:16:30;;;;;;;14.88;1.05;;;;;;;;;;4969876;28;20042;-58
2023/12/31 14:18:58;;;;;;;15.77;1.20;;;;;;;;;;4968752;28;20045;-58
2023/12/31 14:21:26;;;;;;;19.77;1.50;;;;;;;;;;4957856;28;20050;-58
2023/12/31 14:23:54;;;;;;;15.52;1.23;;;;;;;;;;4971817;28;20503;-58
2023/12/31 14:26:21;;;;;;;10.27;1.45;;;;;;;;;;4980331;28;20048;-59
2023/12/31 14:28:50;;;;;;;12.57;1.25;;;;;;;;;;4948704;28;20043;-56
2023/12/31 14:31:18;;;;;;;13.03;1.00;;;;;;;;;;4965630;28;20049;-59
2023/12/31 14:33:48;;;;;;;15.88;1.00;;;;;;;;;;4932749;28;20038;-59
2023/12/31 14:36:29;;;;;;;11.98;1.48;;;;;;;;;;4975179;28;20172;-59
2023/12/31 14:38:57;;;;;;;14.57;1.67;;;;;;;;;;4956151;28;20450;-59
2023/12/31 14:41:25;;;;;;;18.20;1.50;;;;;;;;;;4959142;28;20676;-59
2023/12/31 14:43:53;;;;;;;15.87;1.33;;;;;;;;;;4972854;28;20042;-59
2023/12/31 14:46:21;;;;;;;19.42;1.52;;;;;;;;;;4965497;28;20096;-59